createdAt,value
2019-02-17T00:01:00.451Z,100.00
2019-02-17T00:03:26.684Z,100.00
2019-02-17T00:05:03.786Z,100.00
2019-02-17T00:07:18.266Z,100.00
2019-02-17T00:09:31.480Z,100.00
2019-02-17T00:11:18.850Z,100.00
2019-02-17T00:13:15.113Z,100.00
2019-02-17T00:15:03.046Z,100.00
2019-02-17T00:17:07.404Z,100.00
2019-02-17T00:25:40.603Z,100.00
2019-02-17T00:29:35.430Z,100.00
2019-02-17T00:31:11.006Z,100.00
2019-02-17T00:32:47.609Z,100.00
2019-02-17T00:34:22.686Z,100.00
2019-02-17T00:36:11.657Z,100.00
2019-02-17T00:38:14.154Z,100.00
2019-02-17T00:40:01.159Z,100.00
2019-02-17T00:42:18.242Z,100.00
2019-02-17T00:50:49.141Z,100.00
2019-02-17T00:54:36.538Z,100.00
2019-02-17T00:56:45.495Z,100.00
2019-02-17T00:58:22.547Z,100.00
2019-02-17T00:59:57.896Z,100.00
2019-02-17T01:01:53.009Z,100.00
2019-02-17T01:04:07.970Z,100.00
2019-02-17T01:05:45.355Z,100.00
2019-02-17T01:09:36.925Z,100.00
2019-02-17T01:20:08.964Z,100.00
2019-02-17T01:22:06.335Z,100.00
2019-02-17T01:24:20.817Z,100.00
2019-02-17T01:28:13.292Z,100.00
2019-02-17T01:29:49.818Z,100.00
2019-02-17T01:31:25.270Z,100.00
2019-02-17T01:33:02.252Z,100.00
2019-02-17T01:34:37.856Z,100.00
2019-02-17T01:36:22.111Z,100.00
2019-02-17T01:38:01.735Z,100.00
2019-02-17T01:39:36.764Z,100.00
2019-02-17T01:41:12.316Z,100.00
2019-02-17T01:42:52.335Z,100.00
2019-02-17T01:44:28.103Z,100.00
2019-02-17T01:46:03.699Z,100.00
2019-02-17T01:47:40.515Z,100.00
2019-02-17T01:49:16.074Z,100.00
2019-02-17T01:50:54.013Z,100.00
2019-02-17T01:52:31.546Z,100.00
2019-02-17T01:54:07.124Z,100.00
2019-02-17T01:55:43.888Z,100.00
2019-02-17T01:57:24.433Z,100.00
2019-02-17T01:58:59.912Z,100.00
2019-02-17T02:00:35.156Z,100.00
2019-02-17T02:02:10.619Z,100.00
2019-02-17T02:03:45.679Z,100.00
2019-02-17T02:05:26.361Z,100.00
2019-02-17T02:07:01.390Z,100.00
2019-02-17T02:08:36.552Z,100.00
2019-02-17T02:10:12.032Z,100.00
2019-02-17T02:11:47.380Z,100.00
2019-02-17T02:13:22.641Z,100.00
2019-02-17T02:14:57.866Z,100.00
2019-02-17T02:16:35.268Z,100.00
2019-02-17T02:18:23.990Z,100.00
2019-02-17T02:20:06.316Z,100.00
2019-02-17T02:21:54.306Z,100.00
2019-02-17T02:23:47.517Z,100.00
2019-02-17T02:25:35.055Z,100.00
2019-02-17T02:27:21.885Z,100.00
2019-02-17T02:29:20.694Z,100.00
2019-02-17T02:31:15.421Z,100.00
2019-02-17T02:33:05.457Z,100.00
2019-02-17T02:34:40.889Z,100.00
2019-02-17T02:36:40.429Z,100.00
2019-02-17T02:38:27.825Z,100.00
2019-02-17T02:40:15.267Z,100.00
2019-02-17T02:41:54.162Z,100.00
2019-02-17T02:43:29.223Z,100.00
2019-02-17T02:45:07.537Z,100.00
2019-02-17T02:46:49.408Z,100.00
2019-02-17T02:48:23.439Z,100.00
2019-02-17T02:50:03.002Z,100.00
2019-02-17T02:51:38.113Z,100.00
2019-02-17T02:53:13.983Z,100.00
2019-02-17T02:54:49.012Z,100.00
2019-02-17T02:56:26.085Z,100.00
2019-02-17T02:58:01.573Z,100.00
2019-02-17T02:59:36.647Z,100.00
2019-02-17T03:01:12.715Z,100.00
2019-02-17T03:02:47.759Z,100.00
2019-02-17T03:04:24.889Z,100.00
2019-02-17T03:06:11.476Z,100.00
2019-02-17T03:07:46.546Z,100.00
2019-02-17T03:09:21.571Z,100.00
2019-02-17T03:10:56.740Z,100.00
2019-02-17T03:12:32.435Z,100.00
2019-02-17T03:14:07.497Z,100.00
2019-02-17T03:15:45.363Z,100.00
2019-02-17T03:17:20.529Z,100.00
2019-02-17T03:18:55.620Z,100.00
2019-02-17T03:20:30.968Z,100.00
2019-02-17T03:22:06.079Z,100.00
2019-02-17T03:23:41.155Z,100.00
2019-02-17T03:25:16.306Z,100.00
2019-02-17T03:26:51.624Z,100.00
2019-02-17T03:28:27.445Z,100.00
2019-02-17T03:30:05.368Z,100.00
2019-02-17T03:31:43.544Z,100.00
2019-02-17T03:33:18.645Z,100.00
2019-02-17T03:34:54.220Z,100.00
2019-02-17T03:36:29.255Z,100.00
2019-02-17T03:38:04.298Z,100.00
2019-02-17T03:39:39.933Z,100.00
2019-02-17T03:41:15.280Z,100.00
2019-02-17T03:42:50.671Z,100.00
2019-02-17T03:44:25.724Z,100.00
2019-02-17T03:46:01.155Z,100.00
2019-02-17T03:47:36.283Z,100.00
2019-02-17T03:49:13.313Z,100.00
2019-02-17T03:50:48.667Z,100.00
2019-02-17T03:52:23.800Z,100.00
2019-02-17T03:53:58.943Z,100.00
2019-02-17T03:55:34.443Z,100.00
2019-02-17T03:57:09.443Z,100.00
2019-02-17T03:58:44.681Z,100.00
2019-02-17T04:00:20.150Z,100.00
2019-02-17T04:01:55.311Z,100.00
2019-02-17T04:03:30.363Z,100.00
2019-02-17T04:05:05.832Z,100.00
2019-02-17T04:06:41.309Z,100.00
2019-02-17T04:08:16.504Z,100.00
2019-02-17T04:09:54.978Z,100.00
2019-02-17T04:11:30.067Z,100.00
2019-02-17T04:13:05.605Z,100.00
2019-02-17T04:14:43.540Z,100.00
2019-02-17T04:16:18.352Z,100.00
2019-02-17T04:17:54.908Z,100.00
2019-02-17T04:19:30.379Z,100.00
2019-02-17T04:21:06.484Z,100.00
2019-02-17T04:22:41.655Z,100.00
2019-02-17T04:24:16.709Z,100.00
2019-02-17T04:25:51.822Z,100.00
2019-02-17T04:27:27.157Z,100.00
2019-02-17T04:29:02.316Z,100.00
2019-02-17T04:30:39.542Z,100.00
2019-02-17T04:32:14.561Z,100.00
2019-02-17T04:33:49.655Z,100.00
2019-02-17T04:35:25.051Z,100.00
2019-02-17T04:37:00.115Z,100.00
2019-02-17T04:38:35.202Z,100.00
2019-02-17T04:40:10.516Z,100.00
2019-02-17T04:41:45.661Z,100.00
2019-02-17T04:43:20.996Z,100.00
2019-02-17T04:44:56.100Z,100.00
2019-02-17T04:46:31.155Z,100.00
2019-02-17T04:48:06.243Z,100.00
2019-02-17T04:49:44.205Z,100.00
2019-02-17T04:51:22.090Z,100.00
2019-02-17T04:52:59.450Z,100.00
2019-02-17T04:54:34.468Z,100.00
2019-02-17T04:56:09.513Z,100.00
2019-02-17T04:57:44.717Z,100.00
2019-02-17T04:59:20.389Z,100.00
2019-02-17T05:00:55.897Z,100.00
2019-02-17T05:02:30.919Z,100.00
2019-02-17T05:04:06.771Z,100.00
2019-02-17T05:05:42.579Z,100.00
2019-02-17T05:07:18.056Z,100.00
2019-02-17T05:08:53.552Z,100.00
2019-02-17T05:10:30.574Z,100.00
2019-02-17T05:12:05.601Z,100.00
2019-02-17T05:13:41.036Z,100.00
2019-02-17T05:15:16.643Z,100.00
2019-02-17T05:16:51.688Z,100.00
2019-02-17T05:18:26.784Z,100.00
2019-02-17T05:20:01.969Z,100.00
2019-02-17T05:21:37.335Z,100.00
2019-02-17T05:23:12.551Z,100.00
2019-02-17T05:24:47.718Z,100.00
2019-02-17T05:26:22.774Z,100.00
2019-02-17T05:27:59.506Z,100.00
2019-02-17T05:29:35.928Z,100.00
2019-02-17T05:31:11.014Z,100.00
2019-02-17T05:32:46.150Z,100.00
2019-02-17T05:34:21.589Z,100.00
2019-02-17T05:36:02.192Z,100.00
2019-02-17T05:37:35.289Z,100.00
2019-02-17T05:39:13.384Z,100.00
2019-02-17T05:40:48.834Z,100.00
2019-02-17T05:42:25.236Z,100.00
2019-02-17T05:44:01.158Z,100.00
2019-02-17T05:45:36.318Z,100.00
2019-02-17T05:47:11.376Z,100.00
2019-02-17T05:48:46.461Z,100.00
2019-02-17T05:50:21.532Z,100.00
2019-02-17T05:51:57.014Z,100.00
2019-02-17T05:53:32.028Z,100.00
2019-02-17T05:55:07.522Z,100.00
2019-02-17T05:56:42.600Z,100.00
2019-02-17T05:58:17.645Z,100.00
2019-02-17T05:59:52.827Z,100.00
2019-02-17T06:01:27.939Z,100.00
2019-02-17T06:03:03.032Z,100.00
2019-02-17T06:04:44.715Z,100.00
2019-02-17T06:06:19.790Z,100.00
2019-02-17T06:07:54.907Z,100.00
2019-02-17T06:09:32.342Z,100.00
2019-02-17T06:11:07.517Z,100.00
2019-02-17T06:12:42.829Z,100.00
2019-02-17T06:14:17.905Z,100.00
2019-02-17T06:15:52.971Z,100.00
2019-02-17T06:17:36.389Z,100.00
2019-02-17T06:19:14.678Z,100.00
2019-02-17T06:20:50.005Z,100.00
2019-02-17T06:22:25.472Z,100.00
2019-02-17T06:24:00.553Z,100.00
2019-02-17T06:25:35.709Z,100.00
2019-02-17T06:27:10.844Z,100.00
2019-02-17T06:28:46.320Z,100.00
2019-02-17T06:30:21.418Z,100.00
2019-02-17T06:31:56.616Z,100.00
2019-02-17T06:33:31.701Z,100.00
2019-02-17T06:35:06.849Z,100.00
2019-02-17T06:36:42.198Z,100.00
2019-02-17T06:38:17.312Z,100.00
2019-02-17T06:39:55.389Z,100.00
2019-02-17T06:41:30.519Z,100.00
2019-02-17T06:43:05.739Z,100.00
2019-02-17T06:44:43.208Z,100.00
2019-02-17T06:46:21.897Z,100.00
2019-02-17T06:48:01.992Z,100.00
2019-02-17T06:49:36.812Z,100.00
2019-02-17T06:51:11.843Z,100.00
2019-02-17T06:52:47.633Z,100.00
2019-02-17T06:54:22.973Z,100.00
2019-02-17T06:56:15.878Z,100.00
2019-02-17T06:57:51.759Z,100.00
2019-02-17T06:59:29.340Z,100.00
2019-02-17T07:01:07.937Z,100.00
2019-02-17T07:02:43.058Z,100.00
2019-02-17T07:04:18.376Z,100.00
2019-02-17T07:06:15.027Z,100.00
2019-02-17T07:07:52.715Z,100.00
2019-02-17T07:09:27.797Z,100.00
2019-02-17T07:11:03.213Z,100.00
2019-02-17T07:12:42.703Z,100.00
2019-02-17T07:14:17.822Z,100.00
2019-02-17T07:15:57.036Z,100.00
2019-02-17T07:17:33.534Z,100.00
2019-02-17T07:19:13.806Z,100.00
2019-02-17T07:20:50.563Z,100.00
2019-02-17T07:22:28.301Z,100.00
2019-02-17T07:24:09.561Z,100.00
2019-02-17T07:26:00.492Z,100.00
2019-02-17T07:27:35.341Z,100.00
2019-02-17T07:29:14.177Z,100.00
2019-02-17T07:30:50.294Z,100.00
2019-02-17T07:32:29.564Z,100.00
2019-02-17T07:34:07.550Z,100.00
2019-02-17T07:35:46.336Z,100.00
2019-02-17T07:37:33.066Z,100.00
2019-02-17T07:39:01.694Z,100.00
2019-02-17T07:40:39.824Z,100.00
2019-02-17T07:42:16.015Z,100.00
2019-02-17T07:43:56.882Z,100.00
2019-02-17T07:45:34.699Z,100.00
2019-02-17T07:47:09.926Z,100.00
2019-02-17T07:48:48.669Z,100.00
2019-02-17T07:50:27.960Z,100.00
2019-02-17T07:52:08.274Z,100.00
2019-02-17T07:53:46.491Z,100.00
2019-02-17T07:55:21.564Z,100.00
2019-02-17T07:57:01.519Z,100.00
2019-02-17T07:58:36.548Z,100.00
2019-02-17T08:00:18.573Z,100.00
2019-02-17T08:01:57.007Z,100.00
2019-02-17T08:03:36.225Z,100.00
2019-02-17T08:05:16.207Z,100.00
2019-02-17T08:06:54.192Z,100.00
2019-02-17T08:08:35.746Z,100.00
2019-02-17T08:10:12.239Z,100.00
2019-02-17T08:11:47.551Z,100.00
2019-02-17T08:13:24.043Z,100.00
2019-02-17T08:14:59.549Z,100.00
2019-02-17T08:16:35.222Z,100.00
2019-02-17T08:18:13.169Z,100.00
2019-02-17T08:19:48.977Z,100.00
2019-02-17T08:21:24.873Z,100.00
2019-02-17T08:23:04.071Z,100.00
2019-02-17T08:24:39.304Z,100.00
2019-02-17T08:26:16.099Z,100.00
2019-02-17T08:27:51.990Z,100.00
2019-02-17T08:29:54.755Z,100.00
2019-02-17T08:31:59.257Z,100.00
2019-02-17T08:34:48.564Z,100.00
2019-02-17T08:36:52.823Z,100.00
2019-02-17T08:38:38.537Z,100.00
2019-02-17T08:40:16.548Z,100.00
2019-02-17T08:41:51.792Z,100.00
2019-02-17T08:43:28.084Z,100.00
2019-02-17T08:45:06.852Z,100.00
2019-02-17T08:46:45.149Z,100.00
2019-02-17T08:48:23.518Z,100.00
2019-02-17T08:50:03.745Z,100.00
2019-02-17T08:51:42.324Z,100.00
2019-02-17T08:53:17.699Z,100.00
2019-02-17T08:54:54.731Z,100.00
2019-02-17T08:56:30.299Z,100.00
2019-02-17T08:58:06.930Z,100.00
2019-02-17T08:59:44.804Z,100.00
2019-02-17T09:01:24.347Z,100.00
2019-02-17T09:03:01.557Z,100.00
2019-02-17T09:04:37.295Z,100.00
2019-02-17T09:06:15.252Z,100.00
2019-02-17T09:15:21.457Z,100.00
2019-02-17T09:17:07.110Z,100.00
2019-02-17T09:18:43.723Z,100.00
2019-02-17T09:20:22.061Z,100.00
2019-02-17T09:21:57.803Z,100.00
2019-02-17T09:23:39.274Z,100.00
2019-02-17T09:25:19.575Z,100.00
2019-02-17T09:26:57.033Z,100.00
2019-02-17T09:28:32.904Z,100.00
2019-02-17T09:30:13.471Z,100.00
2019-02-17T09:31:50.944Z,100.00
2019-02-17T09:33:26.218Z,100.00
2019-02-17T09:35:05.139Z,100.00
2019-02-17T09:36:48.424Z,100.00
2019-02-17T09:38:35.291Z,100.00
2019-02-17T09:40:29.419Z,100.00
2019-02-17T09:42:32.747Z,100.00
2019-02-17T09:44:26.558Z,100.00
2019-02-17T09:46:11.244Z,100.00
2019-02-17T09:47:46.430Z,100.00
2019-02-17T09:49:28.743Z,100.00
2019-02-17T09:51:08.002Z,100.00
2019-02-17T09:52:44.954Z,100.00
2019-02-17T09:54:34.003Z,100.00
2019-02-17T09:56:15.024Z,100.00
2019-02-17T09:57:52.581Z,100.00
2019-02-17T09:59:40.781Z,100.00
2019-02-17T10:01:24.305Z,100.00
2019-02-17T10:03:17.193Z,100.00
2019-02-17T10:05:00.095Z,100.00
2019-02-17T10:06:46.998Z,100.00
2019-02-17T10:08:43.719Z,100.00
2019-02-17T10:10:22.261Z,100.00
2019-02-17T10:12:02.808Z,100.00
2019-02-17T10:13:44.025Z,100.00
2019-02-17T10:15:30.843Z,100.00
2019-02-17T10:17:23.356Z,100.00
2019-02-17T10:19:12.711Z,100.00
2019-02-17T10:21:28.319Z,100.00
2019-02-17T10:23:04.307Z,100.00
2019-02-17T10:25:23.888Z,100.00
2019-02-17T10:27:19.233Z,100.00
2019-02-17T10:28:57.427Z,100.00
2019-02-17T10:30:38.969Z,100.00
2019-02-17T10:32:37.091Z,100.00
2019-02-17T10:34:10.552Z,100.00
2019-02-17T10:35:53.043Z,100.00
2019-02-17T10:37:31.765Z,100.00
2019-02-17T10:39:07.985Z,100.00
2019-02-17T10:40:44.983Z,100.00
2019-02-17T10:42:20.679Z,100.00
2019-02-17T10:43:58.889Z,100.00
2019-02-17T10:45:38.525Z,100.00
2019-02-17T10:47:16.571Z,100.00
2019-02-17T10:48:54.929Z,100.00
2019-02-17T10:50:34.538Z,100.00
2019-02-17T10:52:12.889Z,100.00
2019-02-17T10:54:00.025Z,100.00
2019-02-17T10:55:52.641Z,100.00
2019-02-17T10:57:25.662Z,100.00
2019-02-17T10:59:01.562Z,100.00
2019-02-17T11:00:43.619Z,100.00
2019-02-17T11:02:26.928Z,100.00
2019-02-17T11:04:24.894Z,100.00
2019-02-17T11:06:02.314Z,100.00
2019-02-17T11:07:39.628Z,100.00
2019-02-17T11:09:24.779Z,100.00
2019-02-17T11:11:05.276Z,100.00
2019-02-17T11:12:48.621Z,100.00
2019-02-17T11:14:27.133Z,100.00
2019-02-17T11:16:03.903Z,100.00
2019-02-17T11:17:39.293Z,100.00
2019-02-17T11:19:14.771Z,100.00
2019-02-17T11:20:54.115Z,100.00
2019-02-17T11:22:32.564Z,100.00
2019-02-17T11:24:07.606Z,100.00
2019-02-17T11:26:16.538Z,100.00
2019-02-17T11:27:52.802Z,100.00
2019-02-17T11:29:27.935Z,100.00
2019-02-17T11:31:03.522Z,100.00
2019-02-17T11:32:57.546Z,100.00
2019-02-17T11:34:46.201Z,100.00
2019-02-17T11:36:25.876Z,100.00
2019-02-17T11:38:02.547Z,100.00
2019-02-17T11:39:37.670Z,100.00
2019-02-17T11:41:17.841Z,100.00
2019-02-17T11:42:52.857Z,100.00
2019-02-17T11:44:31.867Z,100.00
2019-02-17T11:46:08.184Z,100.00
2019-02-17T11:47:43.235Z,100.00
2019-02-17T11:49:26.713Z,100.00
2019-02-17T11:51:10.381Z,100.00
2019-02-17T11:52:45.724Z,100.00
2019-02-17T11:54:22.662Z,100.00
2019-02-17T11:56:04.393Z,100.00
2019-02-17T11:57:39.854Z,100.00
2019-02-17T11:59:18.267Z,100.00
2019-02-17T12:00:53.989Z,100.00
2019-02-17T12:02:32.078Z,100.00
2019-02-17T12:04:07.354Z,100.00
2019-02-17T12:05:43.151Z,100.00
2019-02-17T12:07:19.316Z,100.00
2019-02-17T12:08:55.248Z,100.00
2019-02-17T12:10:34.875Z,100.00
2019-02-17T12:12:16.441Z,100.00
2019-02-17T12:13:52.355Z,100.00
2019-02-17T12:15:28.038Z,100.00
2019-02-17T12:17:06.017Z,100.00
2019-02-17T12:18:45.017Z,100.00
2019-02-17T12:20:45.885Z,100.00
2019-02-17T12:22:37.289Z,100.00
2019-02-17T12:24:25.843Z,100.00
2019-02-17T12:26:36.092Z,100.00
2019-02-17T12:28:20.355Z,100.00
2019-02-17T12:30:05.844Z,100.00
2019-02-17T12:31:46.309Z,100.00
2019-02-17T12:33:26.282Z,100.00
2019-02-17T12:35:07.797Z,100.00
2019-02-17T12:37:08.242Z,100.00
2019-02-17T12:38:48.361Z,100.00
2019-02-17T12:49:47.107Z,100.00
2019-02-17T12:52:31.163Z,100.00
2019-02-17T12:54:12.427Z,100.00
2019-02-17T12:55:48.704Z,100.00
2019-02-17T12:57:24.997Z,100.00
2019-02-17T12:59:11.375Z,100.00
2019-02-17T13:00:50.035Z,100.00
2019-02-17T13:02:31.218Z,100.00
2019-02-17T13:04:15.674Z,100.00
2019-02-17T13:05:57.667Z,100.00
2019-02-17T13:07:37.071Z,100.00
2019-02-17T13:09:14.165Z,100.00
2019-02-17T13:10:57.087Z,100.00
2019-02-17T13:12:32.567Z,100.00
2019-02-17T13:14:07.772Z,100.00
2019-02-17T13:15:42.831Z,100.00
2019-02-17T13:17:26.052Z,100.00
2019-02-17T13:19:06.456Z,100.00
2019-02-17T13:20:42.328Z,100.00
2019-02-17T13:22:18.906Z,100.00
2019-02-17T13:23:57.675Z,99.99
2019-02-17T13:25:39.396Z,98.86
2019-02-17T13:27:15.296Z,98.31
2019-02-17T13:28:50.737Z,95.67
2019-02-17T13:30:32.755Z,94.19
2019-02-17T13:32:12.814Z,90.90
2019-02-17T13:33:50.339Z,82.73
2019-02-17T13:35:33.678Z,74.77
2019-02-17T13:37:11.167Z,73.52
2019-02-17T13:38:46.480Z,71.33
2019-02-17T13:40:26.153Z,71.64
2019-02-17T13:42:02.676Z,73.81
2019-02-17T13:43:41.154Z,72.14
2019-02-17T13:45:18.253Z,69.17
2019-02-17T13:46:57.263Z,68.78
2019-02-17T13:48:32.752Z,69.08
2019-02-17T13:50:10.134Z,69.45
2019-02-17T13:51:45.627Z,69.36
2019-02-17T13:53:23.833Z,70.44
2019-02-17T13:55:03.483Z,68.45
2019-02-17T13:56:41.304Z,67.88
2019-02-17T13:58:18.722Z,67.36
2019-02-17T13:59:53.854Z,69.16
2019-02-17T14:01:29.212Z,69.96
2019-02-17T14:03:04.961Z,69.05
2019-02-17T14:04:40.110Z,67.34
2019-02-17T14:06:26.389Z,68.22
2019-02-17T14:08:02.262Z,66.96
2019-02-17T14:09:37.937Z,69.55
2019-02-17T14:11:14.127Z,65.75
2019-02-17T14:12:56.136Z,67.60
2019-02-17T14:14:32.323Z,66.13
2019-02-17T14:16:08.790Z,64.77
2019-02-17T14:17:47.507Z,63.83
2019-02-17T14:19:22.913Z,64.19
2019-02-17T14:21:00.916Z,64.78
2019-02-17T14:22:39.060Z,64.92
2019-02-17T14:24:17.774Z,65.30
2019-02-17T14:25:58.318Z,66.09
2019-02-17T14:27:41.548Z,66.46
2019-02-17T14:29:21.039Z,65.36
2019-02-17T14:31:13.594Z,63.84
2019-02-17T14:32:56.496Z,61.98
2019-02-17T14:34:35.972Z,66.50
2019-02-17T14:36:28.409Z,61.49
2019-02-17T14:38:17.211Z,62.78
2019-02-17T14:39:54.735Z,63.69
2019-02-17T14:41:35.352Z,63.18
2019-02-17T14:43:11.307Z,64.04
2019-02-17T14:44:48.262Z,62.28
2019-02-17T14:46:24.033Z,62.82
2019-02-17T14:48:04.943Z,63.32
2019-02-17T14:49:41.172Z,67.16
2019-02-17T14:51:16.498Z,66.16
2019-02-17T14:52:54.694Z,64.81
2019-02-17T14:54:30.844Z,62.37
2019-02-17T14:56:14.849Z,64.31
2019-02-17T14:57:52.274Z,66.87
2019-02-17T14:59:27.949Z,68.59
2019-02-17T15:01:03.873Z,68.40
2019-02-17T15:02:42.995Z,66.10
2019-02-17T15:04:24.839Z,66.24
2019-02-17T15:06:00.843Z,67.85
2019-02-17T15:07:36.732Z,66.52
2019-02-17T15:09:18.343Z,67.29
2019-02-17T15:10:57.603Z,68.36
2019-02-17T15:12:40.207Z,67.05
2019-02-17T15:14:19.212Z,68.26
2019-02-17T15:16:08.726Z,68.27
2019-02-17T15:17:56.423Z,68.78
2019-02-17T15:19:50.239Z,71.33
2019-02-17T15:21:27.464Z,70.67
2019-02-17T15:23:06.479Z,70.04
2019-02-17T15:25:01.304Z,68.70
2019-02-17T15:26:40.222Z,70.84
2019-02-17T15:28:17.341Z,69.66
2019-02-17T15:29:56.988Z,71.55
2019-02-17T15:31:39.275Z,70.23
2019-02-17T15:33:16.084Z,70.69
2019-02-17T15:34:54.567Z,71.99
2019-02-17T15:36:35.714Z,71.39
2019-02-17T15:38:11.882Z,71.82
2019-02-17T15:39:57.072Z,71.81
2019-02-17T15:41:44.058Z,72.28
2019-02-17T15:43:25.196Z,72.73
2019-02-17T15:45:05.288Z,73.94
2019-02-17T15:46:42.362Z,74.80
2019-02-17T15:48:26.597Z,74.00
2019-02-17T15:50:05.179Z,76.25
2019-02-17T15:51:43.286Z,74.92
2019-02-17T15:53:19.234Z,74.10
2019-02-17T15:55:08.176Z,75.27
2019-02-17T15:56:54.048Z,75.70
2019-02-17T15:58:32.546Z,75.22
2019-02-17T16:00:10.709Z,75.78
2019-02-17T16:01:52.114Z,77.37
2019-02-17T16:03:33.589Z,76.01
2019-02-17T16:05:13.830Z,76.86
2019-02-17T16:07:00.031Z,77.50
2019-02-17T16:08:47.196Z,77.90
2019-02-17T16:10:27.592Z,77.11
2019-02-17T16:12:09.734Z,78.35
2019-02-17T16:14:04.481Z,78.93
2019-02-17T16:15:45.510Z,79.25
2019-02-17T16:17:25.444Z,79.05
2019-02-17T16:19:10.237Z,80.24
2019-02-17T16:20:48.709Z,80.92
2019-02-17T16:22:30.755Z,80.89
2019-02-17T16:24:15.898Z,81.74
2019-02-17T16:25:54.203Z,83.42
2019-02-17T16:27:32.956Z,83.83
2019-02-17T16:29:13.275Z,83.91
2019-02-17T16:30:59.184Z,84.05
2019-02-17T16:32:43.358Z,85.06
2019-02-17T16:34:19.003Z,86.38
2019-02-17T16:36:00.649Z,87.79
2019-02-17T16:37:36.701Z,89.09
2019-02-17T16:39:15.180Z,89.44
2019-02-17T16:40:53.339Z,91.14
2019-02-17T16:42:29.380Z,92.48
2019-02-17T16:44:04.810Z,92.85
2019-02-17T16:45:50.704Z,94.28
2019-02-17T16:47:29.824Z,95.20
2019-02-17T16:49:07.614Z,95.42
2019-02-17T16:50:43.532Z,95.52
2019-02-17T16:52:29.325Z,95.58
2019-02-17T16:54:06.711Z,97.21
2019-02-17T16:55:54.726Z,97.18
2019-02-17T16:57:29.873Z,98.47
2019-02-17T16:59:13.585Z,99.32
2019-02-17T17:00:50.859Z,100.00
2019-02-17T17:02:36.832Z,100.00
2019-02-17T17:04:12.861Z,100.00
2019-02-17T17:05:47.987Z,100.00
2019-02-17T17:07:24.793Z,100.00
2019-02-17T17:09:01.709Z,100.00
2019-02-17T17:10:37.176Z,100.00
2019-02-17T17:12:15.450Z,100.00
2019-02-17T17:14:00.742Z,100.00
2019-02-17T17:15:41.379Z,100.00
2019-02-17T17:17:17.174Z,100.00
2019-02-17T17:19:04.711Z,100.00
2019-02-17T17:20:47.418Z,100.00
2019-02-17T17:22:42.598Z,100.00
2019-02-17T17:24:22.327Z,100.00
2019-02-17T17:26:14.402Z,100.00
2019-02-17T17:27:59.152Z,100.00
2019-02-17T17:29:42.434Z,100.00
2019-02-17T17:31:22.205Z,100.00
2019-02-17T17:32:57.831Z,100.00
2019-02-17T17:34:34.495Z,100.00
2019-02-17T17:36:36.960Z,100.00
2019-02-17T17:38:22.645Z,100.00
2019-02-17T17:40:00.309Z,100.00
2019-02-17T17:41:47.360Z,100.00
2019-02-17T17:43:25.514Z,100.00
2019-02-17T17:45:05.142Z,100.00
2019-02-17T17:46:40.670Z,100.00
2019-02-17T17:48:16.976Z,100.00
2019-02-17T17:49:53.916Z,100.00
2019-02-17T17:51:39.686Z,100.00
2019-02-17T17:53:15.631Z,100.00
2019-02-17T17:54:58.876Z,100.00
2019-02-17T17:56:39.227Z,100.00
2019-02-17T17:58:16.272Z,100.00
2019-02-17T18:00:27.296Z,100.00
2019-02-17T18:02:10.653Z,100.00
2019-02-17T18:03:54.468Z,100.00
2019-02-17T18:05:30.768Z,100.00
2019-02-17T18:07:18.503Z,100.00
2019-02-17T18:09:18.723Z,100.00
2019-02-17T18:11:05.221Z,100.00
2019-02-17T18:12:50.023Z,100.00
2019-02-17T18:14:29.406Z,100.00
2019-02-17T18:16:15.495Z,100.00
2019-02-17T18:17:58.037Z,100.00
2019-02-17T18:19:48.401Z,100.00
2019-02-17T18:21:26.330Z,100.00
2019-02-17T18:23:22.003Z,100.00
2019-02-17T18:25:10.500Z,100.00
2019-02-17T18:27:18.181Z,100.00
2019-02-17T18:28:59.905Z,100.00
2019-02-17T18:30:40.807Z,100.00
2019-02-17T18:32:18.409Z,100.00
2019-02-17T18:33:58.079Z,100.00
2019-02-17T18:35:35.173Z,100.00
2019-02-17T18:37:10.690Z,100.00
2019-02-17T18:38:49.345Z,100.00
2019-02-17T18:40:27.509Z,100.00
2019-02-17T18:42:09.555Z,100.00
2019-02-17T18:43:49.845Z,100.00
2019-02-17T18:45:39.278Z,100.00
2019-02-17T18:47:19.754Z,100.00
2019-02-17T18:49:01.479Z,100.00
2019-02-17T18:50:36.770Z,100.00
2019-02-17T18:52:12.597Z,100.00
2019-02-17T18:53:47.685Z,100.00
2019-02-17T18:55:26.594Z,100.00
2019-02-17T18:57:08.050Z,100.00
2019-02-17T18:58:50.276Z,100.00
2019-02-17T19:00:28.249Z,100.00
2019-02-17T19:02:10.056Z,100.00
2019-02-17T19:03:51.297Z,100.00
2019-02-17T19:05:47.155Z,100.00
2019-02-17T19:07:26.263Z,100.00
2019-02-17T19:09:01.758Z,100.00
2019-02-17T19:10:41.317Z,100.00
2019-02-17T19:12:21.367Z,100.00
2019-02-17T19:14:13.383Z,100.00
2019-02-17T19:15:49.273Z,100.00
2019-02-17T19:17:52.566Z,100.00
2019-02-17T19:19:58.784Z,100.00
2019-02-17T19:21:46.810Z,100.00
2019-02-17T19:23:28.002Z,100.00
2019-02-17T19:25:08.713Z,100.00
2019-02-17T19:26:47.631Z,100.00
2019-02-17T19:28:29.119Z,100.00
2019-02-17T19:30:06.714Z,100.00
2019-02-17T19:31:42.858Z,100.00
2019-02-17T19:33:23.201Z,100.00
2019-02-17T19:34:58.672Z,100.00
2019-02-17T19:36:37.488Z,100.00
2019-02-17T19:38:13.877Z,100.00
2019-02-17T19:39:56.777Z,100.00
2019-02-17T19:41:32.242Z,100.00
2019-02-17T19:43:09.108Z,100.00
2019-02-17T19:44:45.405Z,100.00
2019-02-17T19:46:21.520Z,100.00
2019-02-17T19:48:02.997Z,100.00
2019-02-17T19:49:43.566Z,100.00
2019-02-17T19:51:26.846Z,100.00
2019-02-17T19:53:01.931Z,100.00
2019-02-17T19:54:40.307Z,100.00
2019-02-17T19:56:22.407Z,100.00
2019-02-17T19:57:57.695Z,100.00
2019-02-17T19:59:39.248Z,100.00
2019-02-17T20:01:26.709Z,100.00
2019-02-17T20:03:35.882Z,100.00
2019-02-17T20:05:23.028Z,100.00
2019-02-17T20:07:03.431Z,100.00
2019-02-17T20:08:40.606Z,100.00
2019-02-17T20:10:18.088Z,100.00
2019-02-17T20:11:57.791Z,100.00
2019-02-17T20:13:37.833Z,100.00
2019-02-17T20:15:17.183Z,100.00
2019-02-17T20:16:55.456Z,100.00
2019-02-17T20:18:42.495Z,100.00
2019-02-17T20:20:22.329Z,100.00
2019-02-17T20:21:57.800Z,100.00
2019-02-17T20:23:33.369Z,100.00
2019-02-17T20:25:11.986Z,100.00
2019-02-17T20:26:50.434Z,100.00
2019-02-17T20:28:40.600Z,100.00
2019-02-17T20:30:15.866Z,100.00
2019-02-17T20:31:56.836Z,100.00
2019-02-17T20:33:32.059Z,100.00
2019-02-17T20:35:20.464Z,100.00
2019-02-17T20:36:56.719Z,100.00
2019-02-17T20:38:38.320Z,100.00
2019-02-17T20:40:23.735Z,100.00
2019-02-17T20:42:23.212Z,100.00
2019-02-17T20:44:07.401Z,100.00
2019-02-17T20:45:46.520Z,100.00
2019-02-17T20:47:25.977Z,100.00
2019-02-17T20:49:08.227Z,100.00
2019-02-17T20:50:49.635Z,100.00
2019-02-17T20:52:46.156Z,100.00
2019-02-17T20:54:31.929Z,100.00
2019-02-17T20:56:12.507Z,100.00
2019-02-17T20:57:53.581Z,100.00
2019-02-17T20:59:34.731Z,100.00
2019-02-17T21:01:18.483Z,100.00
2019-02-17T21:02:53.932Z,100.00
2019-02-17T21:04:35.687Z,100.00
2019-02-17T21:06:14.428Z,100.00
2019-02-17T21:07:50.061Z,100.00
2019-02-17T21:09:25.112Z,100.00
2019-02-17T21:11:06.491Z,100.00
2019-02-17T21:12:45.292Z,100.00
2019-02-17T21:14:26.266Z,100.00
2019-02-17T21:16:05.684Z,100.00
2019-02-17T21:17:43.490Z,100.00
2019-02-17T21:19:22.339Z,100.00
2019-02-17T21:21:00.328Z,100.00
2019-02-17T21:22:35.767Z,100.00
2019-02-17T21:24:14.268Z,100.00
2019-02-17T21:25:50.690Z,100.00
2019-02-17T21:27:26.375Z,100.00
2019-02-17T21:29:01.854Z,100.00
2019-02-17T21:30:40.337Z,100.00
2019-02-17T21:32:15.482Z,100.00
2019-02-17T21:34:01.084Z,100.00
2019-02-17T21:35:40.831Z,100.00
2019-02-17T21:37:16.737Z,100.00
2019-02-17T21:38:55.315Z,100.00
2019-02-17T21:40:38.654Z,100.00
2019-02-17T21:42:21.999Z,100.00
2019-02-17T21:43:58.230Z,100.00
2019-02-17T21:45:46.685Z,100.00
2019-02-17T21:47:23.268Z,100.00
2019-02-17T21:49:04.797Z,100.00